Hlavní strana
METAR-TAF:

METAR-TAF

Letiště :

Badajoz, Španělsko

zeměpisná šířka: 38-53N, zeměpisná délka: 006-49W, výška: 185 m

Aktuální stav počasí

Zpráva byla vytvořena před 42 minutami, v 04:00 UTC
Západní vítr 1 kt
Teplota 20°C
Vlhkost vzduchu 83%
Tlak 1020 hPa
Viditelnost 10 km a více
Žádná oblačnost pod 1500 m, nevyskytují se cumulonimby.

METAR: LEBZ 260400Z AUTO 28001KT CAVOK 20/17 Q1020

Čas: 06:42 (04:42 UTC)

Předpověď počasí

Zpráva byla vytvořena před 5 hodinami a 42 minutami, v 23:00 UTC
Předpověď platná od 26 v 00 UTC do 26 v 24 UTC
vítr z různých směrů 2 kt
Viditelnost 10 km a více
Žádná oblačnost pod 1500 m, nevyskytují se cumulonimby.
Změna
od 26 v 06 UTC do 26 v 08 UTC
Východoseverovýchodní vítr 10 kt
Pravděpodobnost 40% :
Dočasný
od 26 v 14 UTC do 26 v 20 UTC
Viditelnost: 4000 m
Skoro jasno ve výšce 4000 ft, Cumulonimbus.
dešťové přeháňky

TAF: LEBZ 252300Z 2600/2624 VRB02KT CAVOK TX31/2614Z TN18/2605Z BECMG 2606/2608 06010KT PROB40 TEMPO 2614/2620 4000 SHRA FEW040CB

Stav a předpovědi počasí z více než 4 000 letišť (zprávy METAR a TAF).

Červené a žluté tečky na mapě představují dostupné meteorologické stanice.

Když kurzor umístíte na tečku, zobrazí se název stanice.

Pak kliknutím zobrazíte stav a předpověď počasí.

Chcete-li změnit mapu, kliknutím na zelené tlačítko se znaménkem +mapu přiblížíte, kliknutím na zelené tlačítko se znaménkem – mapu oddálíte a kliknutím na zelené šipky přejdete na sousední mapy.


METAR-TAF: